Time;durP1;ratioP1;P1;durP2;ratioP2;P2;SDS_P1;SDS_P2;PMS_P1;PMS_P2;Temp;Humidity;BMP_temperature;BMP_pressure;BME280_temperature;BME280_humidity;BME280_pressure;Samples;Min_cycle;Max_cycle;Signal;HPM_P1;HPM_P2
2022/11/20 00:00:50;;;;;;;;;;;;;;;21.14;47.13;100929.91;7253568;19;154513;-60
2022/11/20 00:03:17;;;;;;;;;;;;;;;21.17;47.28;100925.63;7252737;19;154747;-60
2022/11/20 00:05:44;;;;;;;;;;;;;;;21.20;46.93;100923.03;7252860;19;155625;-60
2022/11/20 00:08:10;;;;;;;;;;;;;;;21.22;47.29;100919.88;7247979;19;154487;-59
2022/11/20 00:10:37;;;;;;;;;;;;;;;21.23;47.02;100928.00;7253831;19;154252;-60
2022/11/20 00:13:04;;;;;;;;;;;;;;;21.24;47.01;100929.69;7251150;19;154583;-60
2022/11/20 00:15:31;;;;;;;;;;;;;;;21.26;46.89;100934.97;7254165;19;153643;-60
2022/11/20 00:17:58;;;;;;;;;;;;;;;21.27;46.77;100928.22;7252922;19;153820;-60
2022/11/20 00:20:24;;;;;;;;;;;;;;;21.28;47.17;100927.91;7260683;19;154339;-60
2022/11/20 00:22:51;;;;;;;;;;;;;;;21.28;46.79;100918.63;7249956;19;152803;-61
2022/11/20 00:25:18;;;;;;;;;;;;;;;21.29;47.01;100921.16;7249074;19;156125;-60
2022/11/20 00:27:44;;;;;;;;;;;;;;;21.29;47.24;100909.91;7251124;19;152967;-60
2022/11/20 00:30:11;;;;;;;;;;;;;;;21.29;47.17;100900.63;7251116;19;154451;-60
2022/11/20 00:32:40;;;;;;;;;;;;;;;21.28;46.95;100911.03;7250890;19;154075;-60
2022/11/20 00:35:07;;;;;;;;;;;;;;;21.27;46.92;100900.09;7261379;19;154752;-60
2022/11/20 00:37:34;;;;;;;;;;;;;;;21.28;47.10;100896.16;7257000;19;152589;-61
2022/11/20 00:40:00;;;;;;;;;;;;;;;21.26;46.88;100890.00;7256262;19;153416;-61
2022/11/20 00:42:32;;;;;;;;;;;;;;;21.26;46.84;100890.00;7268131;19;154890;-61
2022/11/20 00:44:59;;;;;;;;;;;;;;;21.26;46.79;100884.38;7255794;19;154399;-61
2022/11/20 00:47:26;;;;;;;;;;;;;;;21.26;46.99;100881.59;7259307;19;153996;-60
2022/11/20 00:49:52;;;;;;;;;;;;;;;21.26;47.44;100881.59;7272117;19;154095;-60
2022/11/20 00:52:19;;;;;;;;;;;;;;;21.23;47.25;100883.06;7263307;19;154508;-59
2022/11/20 00:54:45;;;;;;;;;;;;;;;21.23;47.55;100877.44;7259344;19;153858;-60
2022/11/20 00:57:12;;;;;;;;;;;;;;;21.22;47.58;100872.94;7261445;19;153661;-59
2022/11/20 00:59:39;;;;;;;;;;;;;;;21.21;47.69;100868.47;7261305;19;154061;-60
2022/11/20 01:02:05;;;;;;;;;;;;;;;21.20;47.39;100866.00;7260353;19;153645;-60
2022/11/20 01:04:32;;;;;;;;;;;;;;;21.19;47.29;100867.13;7265706;19;153141;-60
2022/11/20 01:06:59;;;;;;;;;;;;;;;21.17;47.79;100859.00;7255537;19;154367;-61
2022/11/20 01:09:25;;;;;;;;;;;;;;;21.15;47.36;100868.91;7258487;19;153974;-60
2022/11/20 01:11:52;;;;;;;;;;;;;;;21.13;47.79;100860.78;7258019;19;154359;-59
2022/11/20 01:14:19;;;;;;;;;;;;;;;21.12;47.80;100853.47;7260593;19;154008;-60
2022/11/20 01:16:48;;;;;;;;;;;;;;;21.10;47.87;100854.94;7256869;19;153987;-60
2022/11/20 01:19:19;;;;;;;;;;;;;;;21.08;47.68;100851.59;7258952;19;154777;-60
2022/11/20 01:21:47;;;;;;;;;;;;;;;21.04;47.88;100853.38;7256145;19;153969;-60
2022/11/20 01:24:15;;;;;;;;;;;;;;;21.02;47.72;100848.09;7263250;19;154805;-60
2022/11/20 01:26:42;;;;;;;;;;;;;;;21.02;47.75;100850.06;7257454;19;153879;-60
2022/11/20 01:29:13;;;;;;;;;;;;;;;21.00;47.97;100852.34;7257920;19;154716;-60
2022/11/20 01:31:40;;;;;;;;;;;;;;;20.96;48.04;100840.91;7257013;19;154253;-60
2022/11/20 01:34:09;;;;;;;;;;;;;;;20.97;47.99;100838.94;7258425;19;154559;-60
2022/11/20 01:36:37;;;;;;;;;;;;;;;20.95;47.88;100827.19;7258397;19;153893;-60
2022/11/20 01:39:05;;;;;;;;;;;;;;;20.94;48.30;100831.97;7254703;19;153153;-60
2022/11/20 01:44:19;;;;;;;;;;;;;;;20.91;48.28;100818.56;7249723;19;153795;-60
2022/11/20 01:46:56;;;;;;;;;;;;;;;20.90;48.02;100818.88;7262877;19;153348;-60
2022/11/20 01:49:26;;;;;;;;;;;;;;;20.88;48.05;100804.31;7258673;19;154894;-60
2022/11/20 01:51:54;;;;;;;;;;;;;;;20.85;48.32;100806.59;7254247;19;153806;-60
2022/11/20 01:54:37;;;;;;;;;;;;;;;20.86;48.37;100802.66;7256290;19;154562;-60
2022/11/20 01:57:04;;;;;;;;;;;;;;;20.86;48.34;100799.00;7254918;19;155169;-60
2022/11/20 01:59:31;;;;;;;;;;;;;;;20.84;48.12;100790.09;7256918;19;153446;-60
2022/11/20 02:01:58;;;;;;;;;;;;;;;20.82;48.36;100787.59;7256832;19;154104;-60
2022/11/20 02:04:25;;;;;;;;;;;;;;;20.86;48.05;100782.16;7254977;19;153913;-60
2022/11/20 02:06:55;;;;;;;;;;;;;;;20.84;48.23;100788.09;7254249;19;154523;-60
2022/11/20 02:09:21;;;;;;;;;;;;;;;20.84;48.57;100781.66;7264121;19;153270;-60
2022/11/20 02:11:49;;;;;;;;;;;;;;;20.83;48.23;100774.38;7255905;19;154079;-60
2022/11/20 02:14:15;;;;;;;;;;;;;;;20.80;48.56;100764.59;7255823;19;154161;-60
2022/11/20 02:16:46;;;;;;;;;;;;;;;20.79;48.34;100767.72;7256751;19;153341;-60
2022/11/20 02:19:23;;;;;;;;;;;;;;;20.82;48.58;100772.69;7256731;19;153517;-61
2022/11/20 02:21:59;;;;;;;;;;;;;;;20.82;48.50;100758.66;7254994;19;153037;-60
2022/11/20 02:24:26;;;;;;;;;;;;;;;20.81;48.46;100759.81;7257825;19;153839;-60
2022/11/20 02:26:54;;;;;;;;;;;;;;;20.81;48.46;100755.03;7255978;19;154475;-60
2022/11/20 02:29:26;;;;;;;;;;;;;;;20.81;47.91;100746.59;7258498;19;153422;-60
2022/11/20 02:31:55;;;;;;;;;;;;;;;20.79;47.88;100743.28;7264475;19;153353;-60
2022/11/20 02:34:21;;;;;;;;;;;;;;;20.78;47.96;100738.81;7257780;19;152712;-60
2022/11/20 02:36:49;;;;;;;;;;;;;;;20.77;48.03;100739.13;7255216;19;154502;-60
2022/11/20 02:39:18;;;;;;;;;;;;;;;20.75;48.04;100718.97;7252067;19;155898;-60
2022/11/20 02:41:45;;;;;;;;;;;;;;;20.70;48.30;100728.34;7255752;19;152339;-59
2022/11/20 02:44:12;;;;;;;;;;;;;;;20.75;47.85;100725.41;7256649;19;153702;-60
2022/11/20 02:46:39;;;;;;;;;;;;;;;20.71;48.21;100710.34;7252530;19;152736;-60
2022/11/20 02:49:05;;;;;;;;;;;;;;;20.74;48.03;100711.69;7255481;19;154392;-60
2022/11/20 02:51:32;;;;;;;;;;;;;;;20.71;47.99;100709.53;7255690;19;153678;-60
2022/11/20 02:53:59;;;;;;;;;;;;;;;20.71;48.08;100701.94;7260160;19;154388;-60
2022/11/20 02:56:26;;;;;;;;;;;;;;;20.68;47.81;100704.50;7252042;19;153482;-60
2022/11/20 02:58:52;;;;;;;;;;;;;;;20.69;48.26;100704.19;7254824;19;156288;-60
2022/11/20 03:01:19;;;;;;;;;;;;;;;20.68;47.81;100708.16;7254907;19;152213;-60
2022/11/20 03:03:48;;;;;;;;;;;;;;;20.66;47.93;100704.84;7256233;19;153166;-60
2022/11/20 03:06:15;;;;;;;;;;;;;;;20.63;47.82;100696.19;7254097;19;154079;-60
2022/11/20 03:08:42;;;;;;;;;;;;;;;20.63;47.91;100699.00;7251629;19;153250;-60
2022/11/20 03:11:09;;;;;;;;;;;;;;;20.62;48.08;100698.22;7256411;19;154494;-60
2022/11/20 03:13:35;;;;;;;;;;;;;;;20.64;48.27;100690.28;7253349;19;153434;-60
2022/11/20 03:16:12;;;;;;;;;;;;;;;20.60;48.22;100682.81;7264315;19;152306;-60
2022/11/20 03:18:39;;;;;;;;;;;;;;;20.62;48.27;100686.16;7253838;19;153295;-60
2022/11/20 03:21:07;;;;;;;;;;;;;;;20.55;48.27;100678.13;7255897;19;152909;-60
2022/11/20 03:23:33;;;;;;;;;;;;;;;20.53;48.19;100679.63;7252042;19;154227;-60
2022/11/20 03:26:20;;;;;;;;;;;;;;;20.53;48.06;100674.00;7252141;19;153557;-60
2022/11/20 03:29:07;;;;;;;;;;;;;;;20.53;48.28;100676.81;7255384;19;153832;-60
2022/11/20 03:31:40;;;;;;;;;;;;;;;20.51;48.30;100671.50;7254001;19;154650;-60
2022/11/20 03:34:07;;;;;;;;;;;;;;;20.48;48.25;100666.53;7254728;19;154646;-61
2022/11/20 03:36:34;;;;;;;;;;;;;;;20.48;48.37;100666.53;7261318;19;152472;-60
2022/11/20 03:39:01;;;;;;;;;;;;;;;20.45;48.29;100667.13;7252103;19;154513;-60
2022/11/20 03:41:29;;;;;;;;;;;;;;;20.41;48.22;100661.31;7254601;19;154992;-60
2022/11/20 03:43:57;;;;;;;;;;;;;;;20.41;48.01;100661.31;7254702;19;154413;-60
2022/11/20 03:46:24;;;;;;;;;;;;;;;20.40;48.52;100667.25;7251804;19;154263;-60
2022/11/20 03:48:51;;;;;;;;;;;;;;;20.36;48.24;100658.63;7254370;19;154890;-60
2022/11/20 03:51:20;;;;;;;;;;;;;;;20.34;48.42;100646.06;7254519;19;152436;-60
2022/11/20 03:53:47;;;;;;;;;;;;;;;20.35;48.00;100644.94;7250589;19;154681;-60
2022/11/20 03:56:14;;;;;;;;;;;;;;;20.32;48.48;100646.38;7253513;19;154716;-60
2022/11/20 03:58:41;;;;;;;;;;;;;;;20.29;48.66;100641.38;7258525;19;153688;-60
2022/11/20 04:01:13;;;;;;;;;;;;;;;20.28;48.51;100639.69;7252351;19;154044;-60
2022/11/20 04:03:40;;;;;;;;;;;;;;;20.26;48.77;100629.97;7254722;19;153118;-60
2022/11/20 04:06:10;;;;;;;;;;;;;;;20.26;48.63;100627.16;7251239;19;153947;-60
2022/11/20 04:08:37;;;;;;;;;;;;;;;20.22;48.89;100620.47;7249458;19;154457;-60
2022/11/20 04:11:10;;;;;;;;;;;;;;;20.20;48.92;100614.38;7252734;19;153992;-60
2022/11/20 04:13:37;;;;;;;;;;;;;;;20.17;48.93;100613.00;7253195;19;156994;-59
2022/11/20 04:16:04;;;;;;;;;;;;;;;20.17;49.25;100615.81;7253745;19;153553;-60
2022/11/20 04:18:34;;;;;;;;;;;;;;;20.16;49.02;100610.53;7252801;19;153897;-60
2022/11/20 04:21:00;;;;;;;;;;;;;;;20.13;49.29;100608.34;7258109;19;154641;-60
2022/11/20 04:23:27;;;;;;;;;;;;;;;20.12;49.08;100610.34;7251034;19;153733;-60
2022/11/20 04:25:54;;;;;;;;;;;;;;;20.14;49.43;100612.81;7250732;19;155593;-60
2022/11/20 04:28:21;;;;;;;;;;;;;;;20.09;49.67;100610.13;7251900;19;152599;-60
2022/11/20 04:30:47;;;;;;;;;;;;;;;20.10;49.23;100600.56;7253502;19;154661;-61
2022/11/20 04:33:14;;;;;;;;;;;;;;;20.09;49.37;100591.31;7251918;19;156384;-60
2022/11/20 04:35:41;;;;;;;;;;;;;;;20.09;49.50;100587.69;7251116;19;153019;-60
2022/11/20 04:38:07;;;;;;;;;;;;;;;20.05;49.81;100583.84;7250697;19;155464;-60
2022/11/20 04:40:34;;;;;;;;;;;;;;;20.03;49.92;100583.34;7251748;19;154136;-60
2022/11/20 04:43:00;;;;;;;;;;;;;;;19.99;50.03;100581.16;7261052;19;153323;-60
2022/11/20 04:45:27;;;;;;;;;;;;;;;20.01;50.01;100582.81;7251066;19;154652;-59
2022/11/20 04:47:54;;;;;;;;;;;;;;;20.00;49.66;100579.19;7252860;19;152973;-60
2022/11/20 04:50:20;;;;;;;;;;;;;;;19.95;50.16;100582.09;7250695;19;154177;-60
2022/11/20 04:52:50;;;;;;;;;;;;;;;19.94;49.86;100574.84;7249630;19;153334;-60
2022/11/20 04:55:17;;;;;;;;;;;;;;;19.92;50.49;100577.94;7252423;19;154233;-60
2022/11/20 04:57:43;;;;;;;;;;;;;;;19.92;50.10;100566.75;7249848;19;152826;-60
2022/11/20 05:00:10;;;;;;;;;;;;;;;19.92;50.41;100565.91;7251727;19;154189;-60
2022/11/20 05:02:37;;;;;;;;;;;;;;;19.90;50.18;100557.78;7251034;19;153245;-59
2022/11/20 05:05:04;;;;;;;;;;;;;;;19.92;50.24;100547.09;7259449;19;156236;-60
2022/11/20 05:07:31;;;;;;;;;;;;;;;19.90;50.49;100540.97;7247125;19;152516;-60
2022/11/20 05:09:57;;;;;;;;;;;;;;;19.90;50.19;100540.13;7251297;19;154159;-60
2022/11/20 05:12:24;;;;;;;;;;;;;;;19.88;50.21;100532.06;7248142;19;153940;-60
2022/11/20 05:14:51;;;;;;;;;;;;;;;19.87;50.47;100526.75;7251044;19;153412;-60
2022/11/20 05:17:17;;;;;;;;;;;;;;;19.87;50.53;100523.97;7251447;19;153992;-60
2022/11/20 05:19:44;;;;;;;;;;;;;;;19.85;50.87;100518.66;7253429;19;154260;-59
2022/11/20 05:22:17;;;;;;;;;;;;;;;19.86;50.55;100511.06;7257004;19;154268;-59
2022/11/20 05:24:43;;;;;;;;;;;;;;;19.85;50.51;100512.25;7257380;19;154429;-60
2022/11/20 05:27:10;;;;;;;;;;;;;;;19.81;50.82;100509.22;7262456;19;154517;-60
2022/11/20 05:29:37;;;;;;;;;;;;;;;19.81;50.71;100506.41;7259473;19;153472;-60
2022/11/20 05:32:05;;;;;;;;;;;;;;;19.80;51.01;100493.56;7257954;19;153374;-60
2022/11/20 05:34:32;;;;;;;;;;;;;;;19.84;50.87;100496.56;7258356;19;153100;-59
2022/11/20 05:36:58;;;;;;;;;;;;;;;19.80;50.97;100484.31;7257636;19;156955;-60
2022/11/20 05:39:25;;;;;;;;;;;;;;;19.79;51.15;100491.06;7255757;19;154031;-60
2022/11/20 05:42:29;;;;;;;;;;;;;;;19.80;50.99;100489.94;7258338;19;153857;-60
2022/11/20 05:44:39;;;;;;;;;;;;;;;19.77;51.29;100491.38;7258291;19;153779;-61
2022/11/20 05:47:05;;;;;;;;;;;;;;;19.78;51.21;100487.44;7261838;19;154345;-60
2022/11/20 05:49:32;;;;;;;;;;;;;;;19.78;51.01;100481.81;7259358;19;156363;-60
2022/11/20 05:51:59;;;;;;;;;;;;;;;19.76;51.02;100474.88;7254216;19;156188;-60
2022/11/20 05:54:26;;;;;;;;;;;;;;;19.73;51.56;100481.94;7255516;19;151984;-59
2022/11/20 05:56:52;;;;;;;;;;;;;;;19.74;51.48;100479.97;7256089;19;154497;-60
2022/11/20 05:59:19;;;;;;;;;;;;;;;19.74;51.33;100472.38;7257456;19;154122;-59
2022/11/20 06:01:46;;;;;;;;;;;;;;;19.74;51.55;100465.94;7255838;19;153149;-60
2022/11/20 06:04:12;;;;;;;;;;;;;;;19.68;51.65;100465.22;7260126;19;154132;-59
2022/11/20 06:06:39;;;;;;;;;;;;;;;19.70;51.50;100451.75;7255031;19;154713;-60
2022/11/20 06:09:06;;;;;;;;;;;;;;;19.67;51.64;100459.94;7267181;19;154024;-59
2022/11/20 06:11:32;;;;;;;;;;;;;;;19.67;51.51;100455.16;7256177;19;154294;-59
2022/11/20 06:13:59;;;;;;;;;;;;;;;19.67;51.84;100454.34;7258592;19;153918;-59
2022/11/20 06:16:25;;;;;;;;;;;;;;;19.65;51.79;100446.25;7258799;19;154142;-60
2022/11/20 06:18:52;;;;;;;;;;;;;;;19.64;51.76;100438.16;7254269;19;154687;-60
2022/11/20 06:21:20;;;;;;;;;;;;;;;19.67;51.46;100429.13;7257025;19;153494;-60
2022/11/20 06:23:47;;;;;;;;;;;;;;;19.60;51.79;100429.53;7251896;19;153682;-60
2022/11/20 06:26:21;;;;;;;;;;;;;;;19.58;52.14;100420.59;7254912;19;156000;-59
2022/11/20 06:28:48;;;;;;;;;;;;;;;19.62;51.94;100413.25;7256417;19;153797;-60
2022/11/20 06:31:16;;;;;;;;;;;;;;;19.59;52.12;100413.88;7262180;19;155114;-60
2022/11/20 06:33:43;;;;;;;;;;;;;;;19.57;52.18;100412.53;7254313;19;153691;-61
2022/11/20 06:36:11;;;;;;;;;;;;;;;19.59;52.28;100413.88;7258046;19;153202;-60
2022/11/20 06:38:38;;;;;;;;;;;;;;;19.57;52.30;100404.13;7251664;19;153431;-60
2022/11/20 06:41:10;;;;;;;;;;;;;;;19.58;52.00;100408.59;7256704;19;153961;-60
2022/11/20 06:43:36;;;;;;;;;;;;;;;19.58;51.76;100409.41;7256435;19;153264;-60
2022/11/20 06:46:03;;;;;;;;;;;;;;;19.60;51.64;100409.94;7254923;19;154150;-60
2022/11/20 06:48:31;;;;;;;;;;;;;;;19.57;52.01;100406.94;7253782;19;154996;-60
2022/11/20 06:50:58;;;;;;;;;;;;;;;19.56;52.37;100408.06;7255422;19;152662;-60
2022/11/20 06:53:26;;;;;;;;;;;;;;;19.57;52.31;100399.34;7259567;19;154740;-61
2022/11/20 06:55:56;;;;;;;;;;;;;;;19.54;52.42;100402.78;7255181;19;154003;-60
2022/11/20 06:58:22;;;;;;;;;;;;;;;19.56;52.32;100405.25;7254970;19;154735;-60
2022/11/20 07:00:49;;;;;;;;;;;;;;;19.54;52.22;100408.38;7256311;19;154236;-60
2022/11/20 07:03:16;;;;;;;;;;;;;;;19.53;52.41;100424.34;7254885;19;153469;-60
2022/11/20 07:05:42;;;;;;;;;;;;;;;19.55;52.44;100429.66;7253892;19;155313;-60
2022/11/20 07:08:09;;;;;;;;;;;;;;;19.56;52.80;100430.50;7247475;19;153617;-60
2022/11/20 07:10:36;;;;;;;;;;;;;;;19.56;52.94;100425.72;7254769;19;153338;-59
2022/11/20 07:13:02;;;;;;;;;;;;;;;19.61;53.04;100406.00;7254115;19;153455;-59
2022/11/20 07:15:29;;;;;;;;;;;;;;;19.64;53.38;100396.94;7263492;19;154279;-60
2022/11/20 07:17:58;;;;;;;;;;;;;;;19.67;53.67;100392.69;7253092;19;154860;-60
2022/11/20 07:20:25;;;;;;;;;;;;;;;19.69;53.83;100394.03;7257251;19;153999;-60
2022/11/20 07:22:55;;;;;;;;;;;;;;;19.73;53.50;100402.63;7250947;19;153528;-60
2022/11/20 07:25:22;;;;;;;;;;;;;;;19.77;53.77;100401.66;7254344;19;154777;-60
2022/11/20 07:27:49;;;;;;;;;;;;;;;19.82;53.63;100395.09;7253339;19;153389;-60
2022/11/20 07:30:16;;;;;;;;;;;;;;;19.85;54.00;100403.72;7255258;19;153386;-60
2022/11/20 07:32:50;;;;;;;;;;;;;;;19.90;54.03;100397.16;7251928;19;156019;-60
2022/11/20 07:35:20;;;;;;;;;;;;;;;19.95;54.06;100402.63;7262708;19;154763;-60
2022/11/20 07:37:48;;;;;;;;;;;;;;;19.98;54.31;100402.84;7250861;19;154375;-60
2022/11/20 07:40:15;;;;;;;;;;;;;;;20.04;54.37;100402.69;7254536;19;153764;-60
2022/11/20 07:42:55;;;;;;;;;;;;;;;20.06;54.31;100398.44;7252483;19;154604;-60
2022/11/20 07:45:23;;;;;;;;;;;;;;;20.14;54.54;100399.66;7253142;19;154134;-59
2022/11/20 07:47:49;;;;;;;;;;;;;;;20.17;54.22;100399.03;7253399;19;153020;-60
2022/11/20 07:50:16;;;;;;;;;;;;;;;20.21;54.53;100400.88;7253804;19;155569;-59
2022/11/20 07:52:50;;;;;;;;;;;;;;;20.26;54.42;100391.50;7252093;19;157227;-60
2022/11/20 07:55:17;;;;;;;;;;;;;;;20.31;54.08;100399.78;7255178;19;154293;-60
2022/11/20 07:57:43;;;;;;;;;;;;;;;20.36;54.29;100402.47;7259503;19;153532;-59
2022/11/20 08:00:11;;;;;;;;;;;;;;;20.40;54.36;100407.13;7254769;19;153298;-59
2022/11/20 08:02:39;;;;;;;;;;;;;;;20.46;54.43;100406.97;7254834;19;153852;-60
2022/11/20 08:05:06;;;;;;;;;;;;;;;20.50;54.08;100408.81;7253424;19;154174;-60
2022/11/20 08:07:39;;;;;;;;;;;;;;;20.55;54.45;100411.50;7252051;19;154128;-60
2022/11/20 08:10:06;;;;;;;;;;;;;;;20.59;54.25;100414.50;7255686;19;154384;-60
2022/11/20 08:15:24;;;;;;;;;;;;;;;20.74;53.40;100419.69;7256006;19;154514;-60
2022/11/20 08:17:51;;;;;;;;;;;;;;;20.76;53.02;100426.63;7252607;19;152844;-60
2022/11/20 08:20:38;;;;;;;;;;;;;;;20.79;52.55;100433.59;7260428;19;156648;-60
2022/11/20 08:23:06;;;;;;;;;;;;;;;20.82;51.92;100441.38;7250858;19;153902;-60
2022/11/20 08:25:34;;;;;;;;;;;;;;;20.84;51.27;100433.47;7251454;19;154115;-60
2022/11/20 08:28:01;;;;;;;;;;;;;;;20.88;51.55;100442.06;7251935;19;154806;-60
2022/11/20 08:30:37;;;;;;;;;;;;;;;20.85;50.98;100452.78;7252328;19;153052;-60
2022/11/20 08:33:10;;;;;;;;;;;;;;;20.88;51.04;100465.34;7251849;19;153591;-61
2022/11/20 08:35:37;;;;;;;;;;;;;;;20.89;50.29;100457.75;7252253;19;153711;-60
2022/11/20 08:38:05;;;;;;;;;;;;;;;20.89;50.09;100460.56;7252887;19;153929;-60
2022/11/20 08:40:32;;;;;;;;;;;;;;;20.90;49.97;100453.78;7252039;19;154587;-61
2022/11/20 08:42:59;;;;;;;;;;;;;;;20.90;49.74;100445.34;7260576;19;153528;-60
2022/11/20 08:45:26;;;;;;;;;;;;;;;20.91;49.67;100461.91;7251605;19;156659;-60
2022/11/20 08:48:00;;;;;;;;;;;;;;;20.90;49.67;100463.03;7252759;19;153910;-60
2022/11/20 08:50:27;;;;;;;;;;;;;;;20.90;49.39;100462.19;7251950;19;152017;-60
2022/11/20 08:53:01;;;;;;;;;;;;;;;20.91;49.20;100466.69;7249907;19;155652;-60
2022/11/20 08:55:28;;;;;;;;;;;;;;;20.90;49.53;100460.22;7257075;19;153695;-60
2022/11/20 08:57:54;;;;;;;;;;;;;;;20.90;49.46;100468.66;7257279;19;152292;-60
2022/11/20 09:00:23;;;;;;;;;;;;;;;20.92;49.43;100471.16;7258823;19;153233;-59
2022/11/20 09:03:00;;;;;;;;;;;;;;;20.91;49.31;100467.50;7258968;19;153350;-59
2022/11/20 09:05:27;;;;;;;;;;;;;;;20.91;48.75;100477.91;7265269;19;153328;-60
2022/11/20 09:07:57;;;;;;;;;;;;;;;20.89;48.88;100467.03;7253642;19;153147;-59
2022/11/20 09:10:24;;;;;;;;;;;;;;;20.90;48.97;100473.44;7260818;19;153829;-60
2022/11/20 09:12:56;;;;;;;;;;;;;;;20.89;48.60;100469.81;7257686;19;154054;-59
2022/11/20 09:15:24;;;;;;;;;;;;;;;20.88;48.54;100473.78;7258666;19;153809;-59
2022/11/20 09:17:58;;;;;;;;;;;;;;;20.89;48.39;100472.63;7258698;19;153725;-59
2022/11/20 09:20:25;;;;;;;;;;;;;;;20.87;48.38;100469.31;7259540;19;153913;-59
2022/11/20 09:23:01;;;;;;;;;;;;;;;20.88;48.78;100467.34;7253612;19;153922;-59
2022/11/20 09:25:28;;;;;;;;;;;;;;;20.90;49.16;100456.59;7258220;19;152444;-61
2022/11/20 09:27:55;;;;;;;;;;;;;;;20.80;48.82;100469.75;7264912;19;155468;-60
2022/11/20 09:30:22;;;;;;;;;;;;;;;20.57;46.21;100479.38;7260134;19;154492;-59
2022/11/20 09:32:57;;;;;;;;;;;;;;;20.60;47.30;100484.34;7255648;19;154298;-60
2022/11/20 09:35:25;;;;;;;;;;;;;;;20.61;47.45;100488.81;7259888;19;154500;-60
2022/11/20 09:37:52;;;;;;;;;;;;;;;20.61;47.57;100497.25;7255830;19;153020;-60
2022/11/20 09:40:29;;;;;;;;;;;;;;;20.62;47.83;100498.06;7254218;19;153569;-60
2022/11/20 09:43:16;;;;;;;;;;;;;;;20.62;47.76;100498.91;7258332;19;153460;-60
2022/11/20 09:46:10;;;;;;;;;;;;;;;20.60;47.49;100501.19;7257800;19;154271;-60
2022/11/20 09:48:57;;;;;;;;;;;;;;;20.57;47.78;100510.25;7263169;19;155102;-60
2022/11/20 09:51:29;;;;;;;;;;;;;;;20.57;47.56;100501.84;7257335;19;155856;-60
2022/11/20 09:54:05;;;;;;;;;;;;;;;20.59;48.11;100501.50;7250015;19;154083;-59
2022/11/20 09:56:33;;;;;;;;;;;;;;;20.57;47.75;100499.03;7257108;19;152173;-59
2022/11/20 09:59:07;;;;;;;;;;;;;;;20.59;47.68;100488.28;7256431;19;153816;-60
2022/11/20 10:01:42;;;;;;;;;;;;;;;20.58;47.99;100474.59;7255010;19;153483;-59
2022/11/20 10:04:17;;;;;;;;;;;;;;;20.58;47.82;100466.19;7258635;19;153320;-59
2022/11/20 10:06:52;;;;;;;;;;;;;;;20.58;47.97;100469.78;7254118;19;155132;-60
2022/11/20 10:09:43;;;;;;;;;;;;;;;20.55;47.48;100478.84;7254582;19;155303;-60
2022/11/20 10:12:25;;;;;;;;;;;;;;;20.56;47.63;100476.88;7261894;19;154469;-60
2022/11/20 10:15:02;;;;;;;;;;;;;;;20.56;47.64;100479.69;7256815;19;156326;-59
2022/11/20 10:17:47;;;;;;;;;;;;;;;20.54;47.61;100476.38;7256060;19;153722;-60
2022/11/20 10:20:23;;;;;;;;;;;;;;;20.55;47.65;100480.84;7258599;19;153387;-60
2022/11/20 10:23:08;;;;;;;;;;;;;;;20.51;47.86;100469.44;7251847;19;153323;-59
2022/11/20 10:25:50;;;;;;;;;;;;;;;20.48;47.62;100467.28;7257357;19;153483;-59
2022/11/20 10:28:35;;;;;;;;;;;;;;;20.48;47.86;100474.84;7255569;19;154052;-60
2022/11/20 10:31:10;;;;;;;;;;;;;;;20.44;48.18;100463.44;7251046;19;153827;-60
2022/11/20 10:33:39;;;;;;;;;;;;;;;20.44;47.86;100469.06;7256755;19;154261;-59
2022/11/20 10:36:27;;;;;;;;;;;;;;;20.44;47.86;100466.25;7263144;19;155045;-60
2022/11/20 10:38:59;;;;;;;;;;;;;;;20.41;48.01;100461.25;7255678;19;153157;-59
2022/11/20 10:41:36;;;;;;;;;;;;;;;20.41;48.22;100467.72;7257293;19;154346;-59
2022/11/20 10:44:05;;;;;;;;;;;;;;;20.42;48.11;100472.19;7254280;19;154537;-59
2022/11/20 10:46:45;;;;;;;;;;;;;;;20.42;48.00;100474.97;7260156;19;154772;-59
2022/11/20 10:49:15;;;;;;;;;;;;;;;20.39;47.85;100469.19;7255294;19;153197;-60
2022/11/20 10:51:42;;;;;;;;;;;;;;;20.35;48.16;100485.00;7252771;19;154353;-59
2022/11/20 10:54:22;;;;;;;;;;;;;;;20.36;48.18;100475.41;7253449;19;154417;-59
2022/11/20 10:56:53;;;;;;;;;;;;;;;20.35;48.15;100474.59;7252666;19;154414;-60
2022/11/20 10:59:23;;;;;;;;;;;;;;;20.38;48.24;100475.94;7260219;19;156174;-60
2022/11/20 11:01:50;;;;;;;;;;;;;;;20.40;48.06;100476.44;7253164;19;153901;-64
2022/11/20 11:04:35;;;;;;;;;;;;;;;20.41;48.08;100466.88;7255572;19;153203;-59
2022/11/20 11:07:10;;;;;;;;;;;;;;;20.41;48.17;100472.47;7252616;19;152869;-59
2022/11/20 11:09:42;;;;;;;;;;;;;;;20.44;48.40;100476.66;7253134;19;154028;-59
2022/11/20 11:12:13;;;;;;;;;;;;;;;20.44;48.30;100479.44;7252624;19;154302;-60
2022/11/20 11:14:44;;;;;;;;;;;;;;;20.46;48.38;100480.78;7255658;19;154619;-59
2022/11/20 11:17:22;;;;;;;;;;;;;;;20.47;48.00;100468.41;7253747;19;153906;-59
2022/11/20 11:20:06;;;;;;;;;;;;;;;20.48;48.13;100469.25;7254550;19;154252;-60
2022/11/20 11:22:34;;;;;;;;;;;;;;;20.49;48.30;100474.50;7260877;19;153981;-60
2022/11/20 11:25:01;;;;;;;;;;;;;;;20.52;48.23;100475.88;7252281;19;154494;-60
2022/11/20 11:27:27;;;;;;;;;;;;;;;20.53;48.36;100483.16;7253744;19;154009;-59
2022/11/20 11:30:12;;;;;;;;;;;;;;;20.56;48.31;100483.34;7254883;19;153984;-60
2022/11/20 11:32:43;;;;;;;;;;;;;;;20.59;48.11;100471.44;7253348;19;154151;-60
2022/11/20 11:35:27;;;;;;;;;;;;;;;20.64;48.41;100470.50;7254240;19;152019;-60
2022/11/20 11:38:02;;;;;;;;;;;;;;;20.67;48.54;100469.88;7253806;19;155513;-59
2022/11/20 11:40:31;;;;;;;;;;;;;;;20.69;48.44;100465.56;7252130;19;154049;-59
2022/11/20 11:43:03;;;;;;;;;;;;;;;20.74;48.59;100461.81;7256113;19;154054;-59
2022/11/20 11:45:30;;;;;;;;;;;;;;;20.78;48.85;100469.25;7260814;19;155132;-60
2022/11/20 11:48:00;;;;;;;;;;;;;;;20.81;49.05;100462.16;7255336;19;153102;-60
2022/11/20 11:50:28;;;;;;;;;;;;;;;20.85;48.90;100454.75;7253447;19;154260;-59
2022/11/20 11:52:54;;;;;;;;;;;;;;;20.88;49.18;100447.69;7249485;19;156610;-60
2022/11/20 11:55:33;;;;;;;;;;;;;;;20.92;48.61;100429.03;7253000;19;153468;-60
2022/11/20 11:58:09;;;;;;;;;;;;;;;20.94;48.92;100435.16;7253593;19;154673;-60
2022/11/20 12:00:38;;;;;;;;;;;;;;;20.98;48.48;100442.63;7252666;19;152705;-61
2022/11/20 12:03:08;;;;;;;;;;;;;;;21.04;48.33;100446.09;7254659;19;154492;-60
2022/11/20 12:05:35;;;;;;;;;;;;;;;21.09;48.56;100440.31;7261292;19;153925;-60
2022/11/20 12:08:05;;;;;;;;;;;;;;;21.15;48.44;100439.06;7247205;19;153825;-61
2022/11/20 12:10:47;;;;;;;;;;;;;;;21.20;47.80;100434.13;7253581;19;154825;-60
2022/11/20 12:13:28;;;;;;;;;;;;;;;21.26;48.42;100437.59;7253833;19;154431;-60
2022/11/20 12:16:02;;;;;;;;;;;;;;;21.33;47.80;100448.38;7252220;19;153167;-61
2022/11/20 12:18:30;;;;;;;;;;;;;;;21.38;48.28;100446.25;7254168;19;152473;-61
2022/11/20 12:21:17;;;;;;;;;;;;;;;21.41;47.69;100442.78;7250601;19;153131;-60
2022/11/20 12:24:02;;;;;;;;;;;;;;;21.47;47.99;100443.47;7249532;19;153739;-61
2022/11/20 12:26:43;;;;;;;;;;;;;;;21.51;47.77;100452.88;7252259;19;154292;-60
2022/11/20 12:29:16;;;;;;;;;;;;;;;21.54;47.45;100455.88;7262533;19;154021;-61
2022/11/20 12:32:01;;;;;;;;;;;;;;;21.58;47.03;100448.44;7259758;19;153677;-60
2022/11/20 12:34:33;;;;;;;;;;;;;;;21.60;46.80;100454.56;7259726;19;153672;-60
2022/11/20 12:37:12;;;;;;;;;;;;;;;21.63;46.70;100458.69;7259388;19;153397;-60
2022/11/20 12:39:42;;;;;;;;;;;;;;;21.68;46.19;100455.72;7259910;19;153397;-60
2022/11/20 12:45:23;;;;;;;;;;;;;;;21.73;45.86;100464.84;7262039;19;153145;-60
2022/11/20 12:48:08;;;;;;;;;;;;;;;21.77;45.93;100464.19;7258723;19;154019;-60
2022/11/20 12:50:53;;;;;;;;;;;;;;;21.79;45.12;100456.25;7258996;19;153831;-60